createdAt,value
2017-06-19T15:34:38.050Z,49.50
2017-06-19T15:37:04.362Z,47.80
2017-06-19T15:39:31.422Z,49.20
2017-06-19T15:41:57.739Z,49.10
2017-06-19T15:44:24.779Z,47.60
2017-06-19T15:46:51.809Z,48.30
2017-06-19T15:49:18.115Z,48.20
2017-06-19T16:14:19.953Z,48.40
2017-06-19T16:16:46.262Z,48.30
2017-06-19T16:40:05.547Z,34.90
2017-06-19T16:42:31.868Z,33.20
2017-06-19T16:44:58.188Z,31.80
2017-06-19T16:47:24.540Z,30.10
2017-06-19T16:49:51.169Z,29.50
2017-06-19T16:52:17.484Z,29.10
2017-06-19T16:54:43.783Z,28.80
2017-06-19T17:00:15.724Z,28.40
2017-06-19T17:02:42.013Z,28.10
2017-06-19T17:05:08.312Z,27.90
2017-06-19T17:07:35.369Z,28.20
2017-06-19T17:10:02.400Z,27.50
2017-06-19T17:12:28.719Z,27.90
2017-06-19T17:14:55.010Z,27.90
2017-06-19T17:17:21.308Z,28.10
2017-06-19T17:19:48.347Z,28.00
2017-06-19T17:22:14.653Z,27.80
2017-06-19T17:24:40.961Z,27.80
2017-06-19T17:27:07.255Z,28.00
2017-06-19T17:29:34.340Z,28.20
2017-06-19T17:32:00.627Z,28.20
2017-06-19T17:34:27.672Z,28.10
2017-06-19T17:36:54.707Z,27.70
2017-06-19T17:39:21.447Z,28.10
2017-06-19T17:41:47.737Z,28.10
2017-06-19T17:44:14.108Z,28.30
2017-06-19T17:46:40.415Z,28.30
2017-06-19T17:49:06.719Z,28.50
2017-06-19T17:51:33.033Z,28.30
2017-06-19T17:53:59.386Z,28.40
2017-06-19T17:56:25.697Z,28.30
2017-06-19T17:58:51.994Z,28.20
2017-06-19T18:01:18.308Z,28.90
2017-06-19T18:03:44.607Z,29.00
2017-06-19T18:06:10.917Z,28.90
2017-06-19T18:08:37.207Z,29.30
2017-06-19T18:11:03.576Z,30.00
2017-06-19T18:14:55.076Z,30.50
2017-06-19T18:17:21.490Z,31.30
2017-06-19T18:19:47.931Z,31.60
2017-06-19T18:22:14.345Z,31.80
2017-06-19T18:24:40.756Z,32.00
2017-06-19T18:27:07.136Z,32.00
2017-06-19T18:29:33.492Z,32.10
2017-06-19T18:31:59.924Z,32.60
2017-06-19T18:34:26.313Z,32.60
2017-06-19T18:36:52.730Z,32.50
2017-06-19T18:39:19.133Z,32.70
2017-06-19T18:41:46.273Z,33.30
2017-06-19T18:44:13.420Z,33.20
2017-06-19T18:46:39.810Z,33.20
2017-06-19T18:49:06.220Z,33.20
2017-06-19T18:51:32.625Z,33.10
2017-06-19T18:53:59.796Z,33.50
2017-06-19T18:56:26.179Z,32.90
2017-06-19T18:58:52.996Z,32.80
2017-06-19T19:01:19.401Z,32.80
2017-06-19T19:03:45.793Z,32.90
2017-06-19T19:06:12.221Z,33.00
2017-06-19T19:08:38.617Z,32.90
2017-06-19T19:11:05.030Z,32.90
2017-06-19T19:13:31.801Z,33.00
2017-06-19T19:15:58.245Z,33.20
2017-06-19T19:18:24.659Z,33.20
2017-06-19T19:20:51.043Z,33.50
2017-06-19T19:23:17.532Z,33.60
2017-06-19T19:25:44.017Z,36.60
2017-06-19T19:28:11.170Z,39.20
2017-06-19T19:30:38.313Z,40.40
2017-06-19T19:33:05.507Z,40.50
2017-06-19T19:35:31.998Z,40.30
2017-06-19T19:37:59.155Z,39.80
2017-06-19T19:40:26.307Z,39.80
2017-06-19T19:42:53.489Z,40.40
2017-06-19T19:45:19.928Z,40.30
2017-06-19T19:47:46.350Z,41.30
2017-06-19T19:50:12.800Z,42.00
2017-06-19T19:52:39.796Z,41.70
2017-06-19T19:55:06.231Z,41.60
2017-06-19T19:57:33.417Z,42.40
2017-06-19T19:59:59.914Z,42.30
2017-06-19T20:02:27.120Z,42.60
2017-06-19T20:04:53.544Z,42.60
2017-06-19T20:07:19.987Z,43.20
2017-06-19T20:09:46.429Z,43.60
2017-06-19T20:12:12.842Z,44.30
2017-06-19T20:14:39.299Z,45.10
2017-06-19T20:17:05.732Z,45.60
2017-06-19T20:19:32.167Z,45.60
2017-06-19T20:21:58.605Z,45.90
2017-06-19T20:24:25.031Z,45.70
2017-06-19T20:26:51.454Z,45.60
2017-06-19T20:29:17.891Z,46.50
2017-06-19T20:31:44.308Z,46.20
2017-06-19T20:34:10.746Z,46.40
2017-06-19T20:36:37.175Z,46.50
2017-06-19T20:39:03.661Z,46.20
2017-06-19T20:41:30.818Z,46.40
2017-06-19T20:43:57.965Z,46.00
2017-06-19T20:46:24.370Z,46.00
2017-06-19T20:48:50.797Z,45.70
2017-06-19T20:51:17.211Z,45.70
2017-06-19T20:53:43.641Z,47.30
2017-06-19T20:56:10.074Z,48.00
2017-06-19T20:58:36.478Z,50.30
2017-06-19T21:01:03.645Z,50.20
2017-06-19T21:03:30.140Z,50.10
2017-06-19T21:05:56.516Z,50.00
2017-06-19T21:08:22.939Z,50.20
2017-06-19T21:10:49.355Z,50.40
2017-06-19T21:13:16.496Z,51.70
2017-06-19T21:15:42.903Z,51.10
2017-06-19T21:18:09.333Z,50.80
2017-06-19T21:20:35.732Z,50.60
2017-06-19T21:23:02.140Z,51.20
2017-06-19T21:25:29.290Z,50.80
2017-06-19T21:27:56.448Z,51.30
2017-06-19T21:30:22.851Z,51.30
2017-06-19T21:32:49.294Z,51.40
2017-06-19T21:35:15.700Z,51.80
2017-06-19T21:37:42.117Z,51.90
2017-06-19T21:40:08.511Z,51.60
2017-06-19T21:42:35.659Z,51.50
2017-06-19T21:45:02.068Z,51.50
2017-06-19T21:47:28.504Z,51.30
2017-06-19T21:49:55.650Z,51.50
2017-06-19T21:52:22.073Z,51.50
2017-06-19T21:54:48.515Z,51.90
2017-06-19T21:57:14.924Z,52.40
2017-06-19T21:59:41.338Z,51.90
2017-06-19T22:02:07.754Z,51.70
2017-06-19T22:04:34.168Z,51.90
2017-06-19T22:07:01.319Z,52.80
2017-06-19T22:09:28.456Z,52.80
2017-06-19T22:11:54.898Z,52.70
2017-06-19T22:14:22.050Z,54.10
2017-06-19T22:16:49.183Z,54.40
2017-06-19T22:19:15.600Z,54.40
2017-06-19T22:21:48.035Z,54.80
2017-06-19T22:24:14.460Z,54.30
2017-06-19T22:26:40.908Z,54.40
2017-06-19T22:29:07.299Z,54.80
2017-06-19T22:31:34.437Z,56.40
2017-06-19T22:34:00.916Z,56.40
2017-06-19T22:36:27.303Z,57.10
2017-06-19T22:38:54.463Z,56.10
2017-06-19T22:41:21.623Z,56.30
2017-06-19T22:43:48.041Z,56.30
2017-06-19T22:46:14.454Z,56.60
2017-06-19T22:48:40.875Z,56.80
2017-06-19T22:51:07.281Z,57.30
2017-06-19T22:53:33.679Z,56.90
2017-06-19T22:56:00.831Z,56.20
2017-06-19T22:58:27.259Z,56.20
2017-06-19T23:00:54.392Z,56.10
2017-06-19T23:03:20.808Z,56.10
2017-06-19T23:05:47.282Z,56.00
2017-06-19T23:08:14.517Z,56.00
2017-06-19T23:10:40.911Z,56.00
2017-06-19T23:13:07.323Z,58.80
2017-06-19T23:15:33.713Z,59.00
2017-06-19T23:18:00.113Z,60.10
2017-06-19T23:20:26.526Z,60.40
2017-06-19T23:22:53.012Z,60.70
2017-06-19T23:25:19.425Z,61.60
2017-06-19T23:27:45.815Z,62.10
2017-06-19T23:30:12.252Z,61.40
2017-06-19T23:32:38.629Z,61.10
2017-06-19T23:35:05.041Z,60.60
2017-06-19T23:37:31.478Z,60.40
2017-06-19T23:39:57.877Z,60.80
2017-06-19T23:42:24.311Z,60.60
2017-06-19T23:44:50.739Z,60.60
2017-06-19T23:47:17.144Z,61.20
2017-06-19T23:49:44.328Z,60.90
2017-06-19T23:52:10.708Z,60.90
2017-06-19T23:54:37.137Z,60.80
2017-06-19T23:57:03.641Z,60.70
2017-06-19T23:59:30.058Z,60.30
